Time;durP1;ratioP1;P1;durP2;ratioP2;P2;SDS_P1;SDS_P2;PMS_P1;PMS_P2;Temp;Humidity;BMP_temperature;BMP_pressure;BME280_temperature;BME280_humidity;BME280_pressure;Samples;Min_cycle;Max_cycle;Signal;HPM_P1;HPM_P2
2022/11/03 00:04:32;;;;;;;1.85;0.85;;;;;;;17.88;73.29;101077.59;20795440;28;20065;-82
2022/11/03 00:14:34;;;;;;;3.83;0.90;;;;;;;17.80;73.14;101045.94;20795809;28;20140;-83
2022/11/03 00:24:35;;;;;;;3.42;1.05;;;;;;;17.86;73.26;101051.78;20793549;28;20057;-82
2022/11/03 00:34:37;;;;;;;2.75;0.90;;;;;;;17.86;72.69;101059.88;20797900;28;20077;-82
2022/11/03 00:44:38;;;;;;;2.75;1.02;;;;;;;17.86;73.07;101049.09;20793017;28;20524;-82
2022/11/03 00:54:40;;;;;;;2.30;1.00;;;;;;;17.85;72.89;101032.06;20808493;28;20048;-82
2022/11/03 01:15:06;;;;;;;3.97;1.00;;;;;;;17.83;72.59;100990.97;20793706;28;20045;-82
2022/11/03 01:25:08;;;;;;;2.83;0.90;;;;;;;17.81;72.11;100966.00;20806114;28;20061;-82
2022/11/03 01:35:09;;;;;;;2.10;0.80;;;;;;;17.80;72.01;100943.63;20789590;28;20057;-82
2022/11/03 01:45:12;;;;;;;2.00;0.60;;;;;;;17.80;72.45;100959.78;20805481;28;20418;-83
2022/11/03 01:55:20;;;;;;;3.03;1.00;;;;;;;17.73;72.25;100923.63;20804320;28;20811;-83
2022/11/03 02:05:23;;;;;;;4.45;1.02;;;;;;;17.79;71.88;100924.91;20736908;28;20137;-83
2022/11/03 02:15:24;;;;;;;3.50;1.08;;;;;;;17.51;72.28;100874.34;20744431;28;20052;-82
2022/11/03 02:25:46;;;;;;;2.75;1.50;;;;;;;17.04;72.30;100769.03;20801768;28;20410;-82
2022/11/03 02:35:59;;;;;;;2.95;0.95;;;;;;;17.78;72.46;100883.66;20801060;28;20061;-83
2022/11/03 02:46:03;;;;;;;2.58;1.08;;;;;;;17.77;71.99;100865.81;20801868;28;20061;-82
2022/11/03 02:56:09;;;;;;;1.80;0.90;;;;;;;17.77;71.90;100865.81;20783056;28;20052;-83
2022/11/03 03:06:21;;;;;;;3.38;0.95;;;;;;;17.76;71.90;100856.03;20798103;28;20057;-82
2022/11/03 03:16:25;;;;;;;3.35;1.10;;;;;;;17.73;71.94;100829.38;20782849;28;20045;-83
2022/11/03 03:26:33;;;;;;;3.17;1.15;;;;;;;17.47;72.13;100807.47;20797528;28;20506;-83
2022/11/03 03:36:37;;;;;;;3.95;1.17;;;;;;;17.54;72.09;100798.69;20796265;28;20049;-82
2022/11/03 03:46:46;;;;;;;5.00;1.50;;;;;;;17.47;72.11;100784.09;20796055;28;20045;-83
2022/11/03 03:56:58;;;;;;;3.95;0.82;;;;;;;17.60;71.96;100799.13;20794936;28;20095;-82
2022/11/03 04:27:43;;;;;;;3.15;1.00;;;;;;;17.74;72.09;100781.75;20795664;28;20053;-83
2022/11/03 04:37:50;;;;;;;2.88;1.02;;;;;;;17.72;72.38;100765.75;20793895;28;20046;-82
2022/11/03 04:47:52;;;;;;;2.63;1.05;;;;;;;17.61;71.98;100734.41;20776757;28;20383;-82
2022/11/03 04:57:57;;;;;;;3.33;1.15;;;;;;;17.62;72.11;100729.84;20793125;28;20052;-83
2022/11/03 05:07:58;;;;;;;1.50;0.63;;;;;;;17.71;72.22;100723.66;20792617;28;20049;-82
2022/11/03 05:18:00;;;;;;;2.33;0.90;;;;;;;17.72;72.24;100719.97;20793048;28;20784;-82
2022/11/03 05:28:02;;;;;;;3.03;1.08;;;;;;;17.70;72.45;100705.81;20805425;28;20056;-83
2022/11/03 05:38:09;;;;;;;2.25;0.95;;;;;;;17.71;72.23;100714.72;20807141;28;20037;-82
2022/11/03 05:48:25;;;;;;;2.45;1.00;;;;;;;17.69;72.12;100699.56;20804268;28;20477;-83
2022/11/03 05:58:28;;;;;;;;;;;;;;;17.69;72.10;100693.34;20788529;28;20128;-82
2022/11/03 06:08:33;;;;;;;2.85;1.15;;;;;;;17.46;72.19;100642.44;20811900;28;19960;-82
2022/11/03 06:18:36;;;;;;;3.13;1.20;;;;;;;17.67;72.84;100680.00;20799669;28;20510;-82
2022/11/03 06:28:38;;;;;;;3.30;1.55;;;;;;;17.67;72.29;100657.59;20790883;28;20049;-82
2022/11/03 06:38:39;;;;;;;3.55;1.23;;;;;;;17.67;72.20;100649.50;20780409;28;20056;-87
2022/11/03 06:48:40;;;;;;;3.53;1.10;;;;;;;17.69;75.11;100650.25;20773910;28;20123;-89
2022/11/03 06:58:43;;;;;;;4.13;1.27;;;;;;;17.72;76.33;100636.50;20766547;28;20132;-92
2022/11/03 07:08:46;;;;;;;6.88;1.50;;;;;;;17.77;75.23;100633.38;20797111;28;20437;-92
2022/11/03 07:18:48;;;;;;;4.55;1.42;;;;;;;17.32;74.60;100568.34;20833213;28;20056;-93
2022/11/03 07:28:50;;;;;;;5.28;1.35;;;;;;;17.70;74.43;100608.88;20778706;28;20099;-89
2022/11/03 07:38:52;;;;;;;3.13;1.20;;;;;;;17.86;74.35;100624.44;20790788;28;20041;-87
2022/11/03 07:48:58;;;;;;;5.70;1.40;;;;;;;17.78;74.13;100590.16;20789135;28;20049;-88
2022/11/03 07:59:00;;;;;;;3.22;1.17;;;;;;;17.89;73.95;100593.69;20794347;28;20139;-89
2022/11/03 08:09:02;;;;;;;3.15;1.13;;;;;;;17.89;73.92;100581.06;20777337;28;20136;-87
2022/11/03 08:19:05;;;;;;;3.78;1.20;;;;;;;17.90;74.28;100576.53;20757448;28;20056;-82
2022/11/03 08:29:06;;;;;;;3.95;1.35;;;;;;;17.92;74.88;100561.09;20770947;28;20060;-84
2022/11/03 08:39:07;;;;;;;3.30;1.15;;;;;;;17.50;75.48;100482.38;20764397;28;20180;-84
2022/11/03 08:49:09;;;;;;;4.00;1.20;;;;;;;17.81;76.07;100519.88;20760870;28;20782;-84
2022/11/03 08:59:10;;;;;;;3.60;1.00;;;;;;;17.80;76.36;100520.88;20767892;28;20049;-87
2022/11/03 09:09:12;;;;;;;2.78;1.13;;;;;;;17.86;76.65;100532.03;20803939;28;20049;-86
2022/11/03 09:19:33;;;;;;;2.97;1.00;;;;;;;17.64;76.91;100474.81;20776010;28;20083;-86
2022/11/03 09:29:35;;;;;;;2.78;1.05;;;;;;;17.40;77.04;100438.50;20780317;28;20053;-85
2022/11/03 09:39:57;;;;;;;2.55;0.90;;;;;;;17.80;77.24;100474.22;20776860;28;20555;-85
2022/11/03 09:49:59;;;;;;;2.40;1.00;;;;;;;17.78;77.47;100460.94;20774458;28;20057;-86
2022/11/03 10:00:03;;;;;;;2.28;0.98;;;;;;;17.60;77.26;100403.44;20764724;28;20057;-83
2022/11/03 10:10:19;;;;;;;3.97;0.80;;;;;;;17.75;77.93;100412.75;20764384;28;20089;-89
2022/11/03 10:20:22;;;;;;;2.42;0.90;;;;;;;17.87;78.08;100412.56;20767226;28;20056;-82
2022/11/03 10:30:23;;;;;;;2.05;0.73;;;;;;;17.91;78.11;100389.72;20781899;28;20493;-84
2022/11/03 10:40:34;;;;;;;2.80;1.00;;;;;;;17.95;78.16;100361.50;20757093;28;20068;-84
2022/11/03 10:50:49;;;;;;;3.05;1.27;;;;;;;17.76;78.07;100314.84;20758536;28;20041;-87
2022/11/03 11:00:50;;;;;;;4.25;0.98;;;;;;;17.72;77.76;100293.75;20768688;28;20115;-83
2022/11/03 11:10:52;;;;;;;1.58;0.77;;;;;;;18.01;77.79;100284.69;20763560;28;20053;-83
2022/11/03 11:21:23;;;;;;;2.08;0.80;;;;;;;17.85;77.95;100250.31;20757881;28;20053;-84
2022/11/03 11:31:31;;;;;;;1.55;0.80;;;;;;;17.95;77.80;100268.09;20762916;28;20056;-83
2022/11/03 11:42:07;;;;;;;1.65;0.82;;;;;;;17.92;78.09;100243.31;20758352;28;20191;-83
2022/11/03 11:52:09;;;;;;;1.95;0.80;;;;;;;17.66;78.34;100177.59;20695462;28;20525;-83
2022/11/03 12:02:19;;;;;;;2.97;1.02;;;;;;;17.81;78.31;100198.59;20702725;28;20144;-91
2022/11/03 12:12:33;;;;;;;4.18;1.10;;;;;;;17.90;78.98;100194.16;20724292;28;20132;-84
2022/11/03 12:22:39;;;;;;;1.67;0.80;;;;;;;17.92;79.11;100160.69;20742831;28;20053;-85
2022/11/03 12:32:41;;;;;;;3.00;0.90;;;;;;;17.93;79.33;100145.38;20780236;28;20580;-85
2022/11/03 12:42:43;;;;;;;2.15;0.80;;;;;;;17.94;79.63;100120.13;20788171;28;20045;-84
2022/11/03 12:52:44;;;;;;;2.72;1.02;;;;;;;17.95;79.61;100089.50;20772500;28;20133;-84
2022/11/03 13:02:46;;;;;;;2.63;1.00;;;;;;;17.96;79.70;100081.28;20777578;28;20046;-84
2022/11/03 13:12:48;;;;;;;1.48;0.70;;;;;;;17.76;79.69;100029.47;20776222;28;20091;-83
2022/11/03 13:22:49;;;;;;;1.63;0.73;;;;;;;17.82;79.66;100020.75;20775561;28;20059;-85
2022/11/03 13:32:51;;;;;;;1.58;0.80;;;;;;;17.94;79.83;100021.34;20706785;28;20045;-85
2022/11/03 13:42:53;;;;;;;2.38;1.10;;;;;;;18.00;79.69;100033.31;20769391;28;20406;-84
2022/11/03 13:52:55;;;;;;;2.38;0.68;;;;;;;18.00;79.91;99997.47;20730416;28;20057;-84
2022/11/03 14:03:16;;;;;;;1.65;0.82;;;;;;;17.82;79.87;99928.34;20757954;28;20049;-86
2022/11/03 14:13:38;;;;;;;1.73;0.68;;;;;;;17.93;79.89;99940.72;20744216;28;20057;-84
2022/11/03 14:23:40;;;;;;;1.83;0.80;;;;;;;17.99;79.97;99942.75;20743192;28;20050;-85
2022/11/03 14:33:41;;;;;;;2.70;0.80;;;;;;;18.00;80.07;99912.13;20693097;28;20123;-85
2022/11/03 14:43:43;;;;;;;3.47;0.90;;;;;;;17.69;80.09;99842.69;20694743;28;20041;-85
2022/11/03 14:53:44;;;;;;;1.42;0.60;;;;;;;18.01;80.01;99876.16;20761946;28;20492;-84
2022/11/03 15:03:46;;;;;;;2.15;0.80;;;;;;;18.01;80.34;99886.09;20764262;28;20401;-83
2022/11/03 15:13:48;;;;;;;1.90;0.77;;;;;;;18.01;80.03;99835.75;20759214;28;20116;-83
2022/11/03 15:23:53;;;;;;;2.00;0.52;;;;;;;18.01;80.23;99829.53;20759473;28;20062;-84
2022/11/03 15:34:15;;;;;;;1.73;0.60;;;;;;;17.95;80.28;99815.69;20761206;28;20499;-84
2022/11/03 15:44:16;;;;;;;1.80;0.68;;;;;;;18.01;80.16;99798.03;20747400;28;20157;-84
2022/11/03 15:54:18;;;;;;;2.38;1.10;;;;;;;18.01;80.16;99802.59;20767511;28;20440;-83
2022/11/03 16:04:19;;;;;;;1.95;0.60;;;;;;;17.79;81.35;99762.63;20736523;28;20552;-85
2022/11/03 16:14:21;;;;;;;2.13;1.05;;;;;;;17.87;81.63;99769.88;20755055;28;20085;-86
2022/11/03 16:24:22;;;;;;;1.25;0.55;;;;;;;17.94;82.09;99775.44;20782836;28;20053;-83
2022/11/03 16:34:35;;;;;;;1.17;0.57;;;;;;;17.92;82.71;99759.47;20770289;28;20049;-83
2022/11/03 16:44:36;;;;;;;1.42;0.60;;;;;;;17.89;83.05;99750.88;20760215;28;20049;-82
2022/11/03 16:54:38;;;;;;;2.05;0.70;;;;;;;17.87;83.75;99731.34;20743270;28;20053;-83
2022/11/03 17:04:39;;;;;;;1.15;0.70;;;;;;;17.86;83.97;99725.09;20741854;28;20457;-83
2022/11/03 17:14:41;;;;;;;3.13;0.68;;;;;;;17.85;84.10;99722.59;20747438;28;20063;-83
2022/11/03 17:24:42;;;;;;;1.90;0.65;;;;;;;17.85;84.55;99725.28;20751927;28;20057;-86
2022/11/03 17:34:44;;;;;;;3.00;0.80;;;;;;;17.53;84.91;99677.41;20766299;28;20060;-85
2022/11/03 17:44:47;;;;;;;1.48;0.63;;;;;;;17.83;85.15;99731.69;20765016;28;20060;-85
2022/11/03 17:54:48;;;;;;;1.77;0.68;;;;;;;17.65;85.54;99690.56;20746430;28;20053;-85
2022/11/03 18:04:56;;;;;;;2.33;1.02;;;;;;;17.80;85.81;99694.31;20721288;28;20529;-84
2022/11/03 18:15:00;;;;;;;2.10;0.90;;;;;;;17.79;86.01;99683.69;20720923;28;20057;-85
2022/11/03 18:25:01;;;;;;;2.13;0.80;;;;;;;17.80;86.20;99688.06;20732336;28;20548;-84
2022/11/03 18:35:03;;;;;;;2.05;1.25;;;;;;;17.50;86.45;99607.78;20747997;28;20065;-82
2022/11/03 18:45:10;;;;;;;3.47;0.88;;;;;;;17.67;86.50;99614.03;20756813;28;20057;-83
2022/11/03 18:55:12;;;;;;;2.75;1.30;;;;;;;17.75;86.81;99609.66;20760110;28;20054;-84
2022/11/03 19:05:14;;;;;;;1.45;0.73;;;;;;;17.77;86.95;99596.88;20771841;28;20707;-83
2022/11/03 19:15:19;;;;;;;2.65;0.88;;;;;;;17.49;86.89;99546.91;20756269;28;20045;-83
2022/11/03 19:25:20;;;;;;;1.70;0.80;;;;;;;17.46;87.15;99512.28;20744259;28;20159;-83
2022/11/03 19:35:28;;;;;;;1.15;0.63;;;;;;;17.77;87.05;99548.44;20762223;28;20064;-83
2022/11/03 19:45:30;;;;;;;1.85;0.93;;;;;;;17.75;87.31;99527.09;20772874;28;20125;-83
2022/11/03 19:55:37;;;;;;;2.13;0.95;;;;;;;17.44;86.98;99475.75;20762843;28;20046;-85
2022/11/03 20:05:39;;;;;;;2.03;0.80;;;;;;;17.37;87.15;99452.22;20715421;28;20049;-85
2022/11/03 20:15:48;;;;;;;1.30;0.65;;;;;;;17.76;87.33;99525.22;20797761;28;20064;-84
2022/11/03 20:25:50;;;;;;;2.95;1.00;;;;;;;17.75;87.15;99524.38;20794224;28;20111;-84
2022/11/03 20:35:52;;;;;;;1.80;0.73;;;;;;;17.75;87.21;99512.78;20810430;28;20045;-84
2022/11/03 20:45:54;;;;;;;1.52;0.65;;;;;;;17.36;87.23;99447.03;20793227;28;20115;-84
2022/11/03 20:55:55;;;;;;;1.80;0.80;;;;;;;17.73;87.46;99510.25;20804356;28;20103;-85
2022/11/03 21:05:57;;;;;;;2.08;0.85;;;;;;;17.74;87.51;99490.41;20809799;28;20053;-84
2022/11/03 21:26:25;;;;;;;1.90;0.85;;;;;;;17.74;87.59;99468.03;20808323;28;20410;-84
2022/11/03 21:36:26;;;;;;;2.35;0.68;;;;;;;17.73;87.71;99477.97;20807213;28;20091;-84
2022/11/03 21:46:28;;;;;;;0.90;0.70;;;;;;;17.73;87.73;99467.19;20805061;28;20690;-85
2022/11/03 21:56:29;;;;;;;2.28;0.82;;;;;;;17.50;87.56;99435.59;20804156;28;20072;-84
2022/11/03 22:06:31;;;;;;;2.15;0.85;;;;;;;17.74;87.63;99457.25;20786765;28;20487;-85
2022/11/03 22:16:35;;;;;;;2.30;0.80;;;;;;;17.73;87.80;99475.28;20804865;28;20080;-84
2022/11/03 22:26:55;;;;;;;1.80;1.10;;;;;;;17.72;87.81;99476.28;20804321;28;20041;-84
2022/11/03 22:36:56;;;;;;;2.03;0.77;;;;;;;17.73;87.76;99493.25;20800776;28;20053;-84
2022/11/03 22:46:58;;;;;;;1.60;0.88;;;;;;;17.73;87.87;99434.03;20802502;28;20076;-84
2022/11/03 22:57:03;;;;;;;1.13;0.75;;;;;;;17.72;87.84;99422.44;20797601;28;20042;-84
2022/11/03 23:07:04;;;;;;;2.08;0.98;;;;;;;17.61;88.28;99402.13;20798930;28;20041;-85
2022/11/03 23:17:06;;;;;;;1.08;0.60;;;;;;;17.71;88.04;99410.00;20798417;28;20073;-84
2022/11/03 23:27:07;;;;;;;1.80;0.77;;;;;;;17.72;88.04;99426.97;20799351;28;20506;-85
2022/11/03 23:37:09;;;;;;;0.82;0.60;;;;;;;17.71;87.99;99410.00;20798130;28;20132;-85
